Knippa, Texas
Current Conditions -  °F | °C
As of 3:35 AM on Saturday 29 Nov 2014 (Local Time) from KUVA Reporting Station
Clear Clear  
Wind Chill: 48°   Ceiling: Unl
Heat Index: 48°   Visibility: 10mi
Dew Point: 46°   Wind: 3mph
Humidity: 95%   Direction: 70°ENE
Pressure: 30.08"   Gusts: NA
Location:  29.3°N, 99.64°W
Report Text: KUVA 290935Z AUTO 07003KT 10SM CLR 09/08 A3008 RMK AO2 T00870080
Loading
Personal Weather Stations






























Interactive Weather Map New forecast layout! Learn more

10-Day Weather Forecast

Advertisements
Track Severe Weather on mobile